Time;durP1;ratioP1;P1;durP2;ratioP2;P2;SDS_P1;SDS_P2;PMS_P1;PMS_P2;Temp;Humidity;BMP_temperature;BMP_pressure;BME280_temperature;BME280_humidity;BME280_pressure;Samples;Min_cycle;Max_cycle;Signal;HPM_P1;HPM_P2
2022/07/20 00:00:06;;;;;;;6.32;4.10;;;;;;;;;;5059675;28;20048;-83
2022/07/20 00:02:34;;;;;;;7.93;3.83;;;;;;;;;;5063028;28;20052;-83
2022/07/20 00:05:01;;;;;;;6.15;3.90;;;;;;;;;;5066078;28;20056;-83
2022/07/20 00:07:29;;;;;;;5.72;3.67;;;;;;;;;;5056268;28;20045;-83
2022/07/20 00:12:41;;;;;;;6.18;3.75;;;;;;;;;;5057565;28;20052;-82
2022/07/20 00:15:09;;;;;;;6.40;3.72;;;;;;;;;;5056141;28;20045;-83
2022/07/20 00:17:36;;;;;;;5.30;3.60;;;;;;;;;;5056196;28;20422;-83
2022/07/20 00:20:04;;;;;;;14.00;4.45;;;;;;;;;;5056349;28;20479;-83
2022/07/20 00:22:31;;;;;;;6.03;3.83;;;;;;;;;;5056529;28;20045;-84
2022/07/20 00:24:58;;;;;;;6.75;4.03;;;;;;;;;;5056129;28;20234;-83
2022/07/20 00:27:25;;;;;;;8.10;3.78;;;;;;;;;;5056813;28;20486;-84
2022/07/20 00:29:52;;;;;;;6.65;4.40;;;;;;;;;;5056340;28;20064;-83
2022/07/20 00:32:19;;;;;;;5.22;3.70;;;;;;;;;;5056628;28;20055;-84
2022/07/20 00:34:46;;;;;;;5.70;3.88;;;;;;;;;;5055842;28;20079;-83
2022/07/20 00:37:14;;;;;;;7.80;3.80;;;;;;;;;;5056623;28;20518;-83
2022/07/20 00:39:41;;;;;;;4.65;4.03;;;;;;;;;;5055346;28;20049;-83
2022/07/20 00:42:08;;;;;;;6.00;4.28;;;;;;;;;;5056456;28;20045;-85
2022/07/20 00:44:35;;;;;;;6.72;4.13;;;;;;;;;;5056331;28;20047;-83
2022/07/20 00:47:02;;;;;;;7.50;4.43;;;;;;;;;;5056379;28;20049;-84
2022/07/20 00:49:30;;;;;;;7.72;4.30;;;;;;;;;;5055474;28;20065;-83
2022/07/20 00:51:57;;;;;;;4.32;3.90;;;;;;;;;;5055158;28;20096;-83
2022/07/20 00:54:24;;;;;;;5.35;3.70;;;;;;;;;;5055695;28;20118;-83
2022/07/20 00:56:51;;;;;;;8.90;4.40;;;;;;;;;;5055473;28;20057;-83
2022/07/20 00:59:19;;;;;;;4.53;3.83;;;;;;;;;;5056576;28;20052;-83
2022/07/20 01:01:46;;;;;;;8.98;4.03;;;;;;;;;;5056737;28;20472;-83
2022/07/20 01:04:13;;;;;;;4.97;3.92;;;;;;;;;;5060059;28;20049;-83
2022/07/20 01:06:41;;;;;;;5.65;3.95;;;;;;;;;;5076638;28;20106;-83
2022/07/20 01:09:08;;;;;;;5.75;4.60;;;;;;;;;;5059810;28;20087;-84
2022/07/20 01:11:35;;;;;;;4.68;4.18;;;;;;;;;;5076639;28;20090;-83
2022/07/20 01:14:03;;;;;;;7.93;4.20;;;;;;;;;;5059617;28;20086;-83
2022/07/20 01:16:31;;;;;;;6.18;4.18;;;;;;;;;;5059555;28;20390;-83
2022/07/20 01:18:58;;;;;;;5.88;4.07;;;;;;;;;;5058739;28;20391;-83
2022/07/20 01:21:25;;;;;;;3.90;3.60;;;;;;;;;;5059005;28;20072;-83
2022/07/20 01:23:53;;;;;;;5.70;4.00;;;;;;;;;;5059123;28;20099;-83
2022/07/20 01:26:20;;;;;;;5.38;4.25;;;;;;;;;;5060093;28;20056;-84
2022/07/20 01:28:47;;;;;;;4.40;4.00;;;;;;;;;;5059099;28;20529;-83
2022/07/20 01:31:15;;;;;;;6.00;4.18;;;;;;;;;;5058826;28;20075;-83
2022/07/20 01:33:43;;;;;;;4.38;3.95;;;;;;;;;;5059110;28;20048;-83
2022/07/20 01:36:10;;;;;;;6.95;4.38;;;;;;;;;;5059237;28;20188;-83
2022/07/20 01:38:37;;;;;;;7.45;4.45;;;;;;;;;;5059295;28;20053;-83
2022/07/20 01:41:04;;;;;;;10.98;3.90;;;;;;;;;;5059756;28;20137;-84
2022/07/20 01:43:31;;;;;;;4.68;4.28;;;;;;;;;;5077721;28;20044;-83
2022/07/20 01:45:59;;;;;;;11.68;4.95;;;;;;;;;;5058963;28;20045;-83
2022/07/20 01:48:26;;;;;;;6.18;3.95;;;;;;;;;;5058501;28;20052;-83
2022/07/20 01:50:53;;;;;;;6.05;4.50;;;;;;;;;;5061641;28;20098;-84
2022/07/20 01:53:20;;;;;;;5.00;4.50;;;;;;;;;;5062773;28;20514;-83
2022/07/20 01:55:48;;;;;;;6.07;4.28;;;;;;;;;;5081095;28;20045;-83
2022/07/20 01:58:15;;;;;;;6.95;4.40;;;;;;;;;;5061521;28;20059;-83
2022/07/20 02:00:43;;;;;;;12.35;4.80;;;;;;;;;;5060449;28;20067;-83
2022/07/20 02:03:10;;;;;;;6.90;4.50;;;;;;;;;;5062198;28;20059;-83
2022/07/20 02:05:37;;;;;;;6.45;4.45;;;;;;;;;;5063636;28;20049;-83
2022/07/20 02:08:05;;;;;;;7.25;4.40;;;;;;;;;;5063616;28;20068;-83
2022/07/20 02:10:33;;;;;;;5.53;4.25;;;;;;;;;;5064324;28;20098;-83
2022/07/20 02:13:00;;;;;;;8.88;4.85;;;;;;;;;;5082876;28;20044;-83
2022/07/20 02:18:13;;;;;;;6.78;4.97;;;;;;;;;;5082499;28;20045;-83
2022/07/20 02:20:41;;;;;;;5.55;4.53;;;;;;;;;;5090388;28;20048;-82
2022/07/20 02:23:09;;;;;;;5.38;4.70;;;;;;;;;;5065896;28;20520;-83
2022/07/20 02:25:37;;;;;;;9.80;4.30;;;;;;;;;;5062490;28;20182;-83
2022/07/20 02:28:05;;;;;;;4.60;4.10;;;;;;;;;;5063305;28;20482;-83
2022/07/20 02:30:32;;;;;;;8.00;4.45;;;;;;;;;;5061943;28;20117;-83
2022/07/20 02:33:01;;;;;;;6.22;4.72;;;;;;;;;;5062777;28;20056;-83
2022/07/20 02:35:28;;;;;;;7.25;4.53;;;;;;;;;;5062943;28;20324;-83
2022/07/20 02:37:55;;;;;;;5.28;4.70;;;;;;;;;;5062723;28;20044;-83
2022/07/20 02:40:22;;;;;;;6.43;5.07;;;;;;;;;;5063611;28;20383;-83
2022/07/20 02:42:49;;;;;;;6.50;4.05;;;;;;;;;;5081138;28;20101;-83
2022/07/20 02:45:16;;;;;;;5.25;4.75;;;;;;;;;;5080557;28;20095;-83
2022/07/20 02:47:44;;;;;;;6.53;4.60;;;;;;;;;;5081103;28;20052;-83
2022/07/20 02:50:12;;;;;;;6.13;4.30;;;;;;;;;;5063624;28;20048;-83
2022/07/20 02:52:40;;;;;;;8.68;4.95;;;;;;;;;;5079479;28;20045;-83
2022/07/20 02:55:08;;;;;;;4.85;4.43;;;;;;;;;;5063306;28;20071;-83
2022/07/20 02:57:35;;;;;;;4.78;4.30;;;;;;;;;;5062298;28;20074;-83
2022/07/20 03:00:05;;;;;;;6.97;5.07;;;;;;;;;;5080615;28;20044;-83
2022/07/20 03:02:32;;;;;;;6.95;4.95;;;;;;;;;;5062019;28;20516;-83
2022/07/20 03:04:59;;;;;;;5.22;4.72;;;;;;;;;;5059268;28;20063;-83
2022/07/20 03:07:26;;;;;;;6.95;4.97;;;;;;;;;;5060195;28;20048;-83
2022/07/20 03:09:54;;;;;;;4.82;4.43;;;;;;;;;;5059086;28;20045;-83
2022/07/20 03:12:21;;;;;;;7.32;4.63;;;;;;;;;;5058271;28;20483;-83
2022/07/20 03:14:48;;;;;;;6.85;5.00;;;;;;;;;;5057451;28;20045;-83
2022/07/20 03:17:16;;;;;;;6.03;4.68;;;;;;;;;;5057577;28;20060;-83
2022/07/20 03:19:44;;;;;;;7.82;4.78;;;;;;;;;;5058463;28;20048;-83
2022/07/20 03:22:11;;;;;;;6.75;5.22;;;;;;;;;;5058277;28;20055;-83
2022/07/20 03:24:38;;;;;;;6.10;4.70;;;;;;;;;;5057743;28;20041;-83
2022/07/20 03:27:06;;;;;;;5.40;4.53;;;;;;;;;;5058571;28;20102;-83
2022/07/20 03:29:33;;;;;;;6.07;4.80;;;;;;;;;;5058507;28;20426;-83
2022/07/20 03:32:00;;;;;;;8.82;4.93;;;;;;;;;;5059204;28;20553;-83
2022/07/20 03:34:27;;;;;;;7.25;4.80;;;;;;;;;;5057718;28;20127;-83
2022/07/20 03:36:55;;;;;;;6.28;5.18;;;;;;;;;;5056761;28;20057;-83
2022/07/20 03:39:22;;;;;;;6.88;4.90;;;;;;;;;;5056344;28;20508;-83
2022/07/20 03:41:50;;;;;;;5.68;5.18;;;;;;;;;;5057655;28;20045;-83
2022/07/20 03:44:17;;;;;;;4.75;4.22;;;;;;;;;;5057225;28;20457;-83
2022/07/20 03:46:44;;;;;;;7.32;4.43;;;;;;;;;;5058509;28;20044;-83
2022/07/20 03:49:11;;;;;;;7.15;4.78;;;;;;;;;;5059146;28;20052;-83
2022/07/20 03:51:38;;;;;;;9.73;4.70;;;;;;;;;;5059275;28;20045;-83
2022/07/20 03:54:10;;;;;;;11.00;4.88;;;;;;;;;;5057732;28;20055;-83
2022/07/20 03:56:40;;;;;;;4.97;4.47;;;;;;;;;;5058619;28;20056;-83
2022/07/20 03:59:08;;;;;;;6.50;4.82;;;;;;;;;;5058237;28;20059;-83
2022/07/20 04:01:35;;;;;;;5.95;4.85;;;;;;;;;;5059092;28;20478;-83
2022/07/20 04:04:03;;;;;;;12.30;9.82;;;;;;;;;;5060428;28;20576;-83
2022/07/20 04:06:30;;;;;;;15.90;10.73;;;;;;;;;;5060881;28;20068;-82
2022/07/20 04:08:57;;;;;;;11.20;7.18;;;;;;;;;;5060528;28;20048;-82
2022/07/20 04:11:24;;;;;;;9.27;6.50;;;;;;;;;;5061369;28;20477;-82
2022/07/20 04:13:52;;;;;;;11.23;6.03;;;;;;;;;;5057149;28;20106;-82
2022/07/20 04:16:19;;;;;;;6.38;5.70;;;;;;;;;;5058595;28;20114;-83
2022/07/20 04:18:46;;;;;;;6.60;5.28;;;;;;;;;;5075874;28;20053;-82
2022/07/20 04:21:14;;;;;;;8.85;5.38;;;;;;;;;;5058496;28;20560;-83
2022/07/20 04:23:42;;;;;;;8.60;5.68;;;;;;;;;;5058295;28;20049;-83
2022/07/20 04:26:09;;;;;;;9.98;6.38;;;;;;;;;;5058187;28;20490;-84
2022/07/20 04:28:36;;;;;;;16.27;6.10;;;;;;;;;;5058332;28;20052;-82
2022/07/20 04:31:04;;;;;;;15.90;7.13;;;;;;;;;;5059156;28;20044;-83
2022/07/20 04:33:31;;;;;;;16.58;8.93;;;;;;;;;;5070372;28;20073;-82
2022/07/20 04:35:58;;;;;;;13.50;8.00;;;;;;;;;;5062732;28;20052;-83
2022/07/20 04:38:25;;;;;;;13.25;9.43;;;;;;;;;;5055845;28;20074;-82
2022/07/20 04:40:53;;;;;;;17.52;9.55;;;;;;;;;;5055526;28;20575;-83
2022/07/20 04:43:20;;;;;;;13.98;9.98;;;;;;;;;;5055839;28;20049;-83
2022/07/20 04:45:47;;;;;;;11.20;7.05;;;;;;;;;;5055296;28;20090;-83
2022/07/20 04:48:23;;;;;;;13.95;6.18;;;;;;;;;;5056764;28;20459;-84
2022/07/20 04:50:50;;;;;;;9.60;5.10;;;;;;;;;;5073645;28;20051;-83
2022/07/20 04:53:17;;;;;;;9.15;5.55;;;;;;;;;;5055238;28;20129;-84
2022/07/20 04:55:45;;;;;;;6.28;5.05;;;;;;;;;;5055493;28;20056;-84
2022/07/20 04:58:12;;;;;;;8.00;4.88;;;;;;;;;;5055418;28;20056;-84
2022/07/20 05:00:39;;;;;;;6.10;4.68;;;;;;;;;;5055515;28;20045;-84
2022/07/20 05:03:06;;;;;;;14.57;9.73;;;;;;;;;;5055380;28;20056;-84
2022/07/20 05:05:34;;;;;;;11.27;6.80;;;;;;;;;;5051230;28;20068;-84
2022/07/20 05:08:02;;;;;;;9.23;4.70;;;;;;;;;;5051665;28;20060;-84
2022/07/20 05:10:30;;;;;;;7.43;4.63;;;;;;;;;;5051524;28;20048;-84
2022/07/20 05:12:57;;;;;;;5.70;4.90;;;;;;;;;;5051723;28;20094;-84
2022/07/20 05:15:24;;;;;;;7.93;5.13;;;;;;;;;;5051409;28;20045;-83
2022/07/20 05:17:51;;;;;;;7.18;4.63;;;;;;;;;;5052038;28;20049;-84
2022/07/20 05:20:19;;;;;;;6.03;4.45;;;;;;;;;;5052181;28;20107;-83
2022/07/20 05:22:46;;;;;;;6.55;4.22;;;;;;;;;;5053575;28;20127;-84
2022/07/20 05:25:13;;;;;;;6.00;4.60;;;;;;;;;;5053961;28;20045;-84
2022/07/20 05:27:41;;;;;;;7.15;5.03;;;;;;;;;;5056474;28;20565;-85
2022/07/20 05:30:08;;;;;;;10.00;4.47;;;;;;;;;;5057464;28;20107;-84
2022/07/20 05:32:35;;;;;;;12.43;4.85;;;;;;;;;;5058536;28;20057;-85
2022/07/20 05:35:05;;;;;;;6.28;4.00;;;;;;;;;;5056855;28;20075;-86
2022/07/20 05:37:32;;;;;;;9.48;4.13;;;;;;;;;;5057146;28;20049;-86
2022/07/20 05:39:59;;;;;;;7.50;3.90;;;;;;;;;;5056442;28;20077;-86
2022/07/20 05:42:26;;;;;;;8.68;4.15;;;;;;;;;;5056223;28;20103;-86
2022/07/20 05:44:53;;;;;;;9.50;4.30;;;;;;;;;;5056748;28;20466;-86
2022/07/20 05:47:21;;;;;;;8.23;3.97;;;;;;;;;;5056034;28;20506;-86
2022/07/20 05:49:49;;;;;;;3.72;3.38;;;;;;;;;;5055893;28;20060;-86
2022/07/20 05:52:16;;;;;;;7.60;3.90;;;;;;;;;;5055973;28;20118;-86
2022/07/20 05:54:44;;;;;;;6.03;3.88;;;;;;;;;;5056095;28;20076;-86
2022/07/20 05:57:12;;;;;;;7.68;4.00;;;;;;;;;;5056037;28;20056;-86
2022/07/20 05:59:40;;;;;;;8.80;4.18;;;;;;;;;;5055452;28;20056;-86
2022/07/20 06:02:07;;;;;;;5.10;3.47;;;;;;;;;;5056460;28;20115;-84
2022/07/20 06:04:34;;;;;;;5.60;4.05;;;;;;;;;;5057676;28;20057;-84
2022/07/20 06:07:02;;;;;;;8.52;4.05;;;;;;;;;;5058946;28;20059;-84
2022/07/20 06:09:29;;;;;;;11.10;4.00;;;;;;;;;;5060699;28;20053;-84
2022/07/20 06:11:57;;;;;;;12.43;4.78;;;;;;;;;;5059144;28;20417;-85
2022/07/20 06:14:25;;;;;;;5.95;4.03;;;;;;;;;;5059355;28;20045;-84
2022/07/20 06:16:52;;;;;;;12.80;4.15;;;;;;;;;;5059997;28;20096;-85
2022/07/20 06:19:19;;;;;;;5.25;4.10;;;;;;;;;;5060269;28;20395;-84
2022/07/20 06:21:47;;;;;;;10.10;4.55;;;;;;;;;;5059847;28;20049;-85
2022/07/20 06:24:15;;;;;;;9.07;3.78;;;;;;;;;;5059254;28;20465;-85
2022/07/20 06:26:45;;;;;;;11.23;4.55;;;;;;;;;;5056472;28;20049;-87
2022/07/20 06:29:12;;;;;;;8.68;4.00;;;;;;;;;;5056475;28;20498;-86
2022/07/20 06:31:39;;;;;;;6.65;3.33;;;;;;;;;;5058860;28;20049;-86
2022/07/20 06:34:29;;;;;;;9.73;3.65;;;;;;;;;;5057453;28;20080;-86
2022/07/20 06:36:57;;;;;;;16.25;3.80;;;;;;;;;;5055604;28;20045;-87
2022/07/20 06:42:30;;;;;;;21.00;5.10;;;;;;;;;;5058361;28;20418;-86
2022/07/20 06:44:57;;;;;;;11.82;3.70;;;;;;;;;;5061234;28;20049;-86
2022/07/20 06:47:25;;;;;;;17.73;3.83;;;;;;;;;;5066940;28;20083;-85
2022/07/20 06:50:03;;;;;;;11.32;4.00;;;;;;;;;;5063405;28;20071;-86
2022/07/20 06:52:36;;;;;;;18.83;4.35;;;;;;;;;;5065715;28;20059;-86
2022/07/20 06:55:07;;;;;;;8.32;2.92;;;;;;;;;;5069903;28;20083;-86
2022/07/20 06:57:34;;;;;;;17.88;3.85;;;;;;;;;;5069649;28;20049;-85
2022/07/20 07:00:01;;;;;;;16.52;4.40;;;;;;;;;;5067208;28;20053;-86
2022/07/20 07:02:28;;;;;;;29.38;5.18;;;;;;;;;;5067215;28;20041;-86
2022/07/20 07:04:58;;;;;;;15.98;4.10;;;;;;;;;;5063277;28;20061;-86
2022/07/20 07:07:25;;;;;;;20.85;4.13;;;;;;;;;;5061666;28;20099;-87
2022/07/20 07:09:52;;;;;;;25.17;4.18;;;;;;;;;;5065752;28;20075;-84
2022/07/20 07:12:19;;;;;;;13.13;4.13;;;;;;;;;;5071956;23;20045;-83
2022/07/20 07:14:47;;;;;;;14.75;4.15;;;;;;;;;;5055578;28;20450;-83
2022/07/20 07:17:21;;;;;;;6.63;2.80;;;;;;;;;;5056159;28;20053;-84
2022/07/20 07:19:48;;;;;;;9.23;3.20;;;;;;;;;;5058653;28;20418;-84
2022/07/20 07:22:16;;;;;;;8.73;2.97;;;;;;;;;;5055244;28;20083;-82
2022/07/20 07:24:43;;;;;;;10.68;3.13;;;;;;;;;;5077037;23;20071;-82
2022/07/20 07:27:10;;;;;;;16.92;3.45;;;;;;;;;;5043677;28;20099;-82
2022/07/20 07:29:37;;;;;;;12.20;3.28;;;;;;;;;;5042990;28;20048;-82
2022/07/20 07:32:06;;;;;;;8.60;2.70;;;;;;;;;;5040119;28;20077;-82
2022/07/20 07:34:34;;;;;;;22.55;3.60;;;;;;;;;;5041365;28;20045;-78
2022/07/20 07:37:02;;;;;;;14.73;3.80;;;;;;;;;;5038145;28;20045;-78
2022/07/20 07:39:29;;;;;;;17.90;3.15;;;;;;;;;;5039277;28;20052;-79
2022/07/20 07:41:56;;;;;;;14.38;3.00;;;;;;;;;;5040081;28;20103;-80
2022/07/20 07:44:23;;;;;;;8.75;2.78;;;;;;;;;;5039881;28;20049;-79
2022/07/20 07:46:50;;;;;;;4.13;1.42;;;;;;;;;;5037921;28;20045;-80
2022/07/20 07:49:17;;;;;;;2.80;1.40;;;;;;;;;;5034557;28;20175;-79
2022/07/20 07:51:45;;;;;;;6.30;1.55;;;;;;;;;;5035534;28;20050;-78
2022/07/20 07:54:12;;;;;;;2.00;1.20;;;;;;;;;;5037564;28;20072;-79
2022/07/20 07:56:41;;;;;;;4.22;1.80;;;;;;;;;;5040800;28;20049;-82
2022/07/20 07:59:08;;;;;;;2.35;1.33;;;;;;;;;;5036360;28;20510;-81
2022/07/20 08:01:55;;;;;;;3.40;1.40;;;;;;;;;;5033911;28;20053;-81
2022/07/20 08:04:22;;;;;;;3.42;1.27;;;;;;;;;;5033794;28;20053;-82
2022/07/20 08:06:50;;;;;;;3.78;1.50;;;;;;;;;;5033650;28;20084;-80
2022/07/20 08:09:17;;;;;;;8.07;1.77;;;;;;;;;;5035035;28;20049;-82
2022/07/20 08:11:44;;;;;;;3.22;1.50;;;;;;;;;;5035445;28;20502;-83
2022/07/20 08:14:12;;;;;;;2.92;1.50;;;;;;;;;;5037130;28;20052;-81
2022/07/20 08:16:39;;;;;;;3.15;1.55;;;;;;;;;;5034687;28;20049;-80
2022/07/20 08:19:06;;;;;;;3.20;1.42;;;;;;;;;;5037550;28;20084;-81
2022/07/20 08:21:33;;;;;;;6.07;1.60;;;;;;;;;;5034738;28;20500;-82
2022/07/20 08:24:02;;;;;;;4.20;1.38;;;;;;;;;;5032369;28;20054;-82
2022/07/20 08:26:29;;;;;;;3.20;1.70;;;;;;;;;;5034142;28;20422;-82
2022/07/20 08:28:56;;;;;;;3.63;1.70;;;;;;;;;;5033408;28;20065;-80
2022/07/20 08:31:23;;;;;;;3.33;1.60;;;;;;;;;;5035809;28;20045;-81
2022/07/20 08:33:51;;;;;;;4.25;1.60;;;;;;;;;;5034629;28;20050;-82
2022/07/20 08:36:19;;;;;;;2.47;1.55;;;;;;;;;;5035551;28;20056;-81
2022/07/20 08:38:46;;;;;;;10.38;2.50;;;;;;;;;;5033311;28;20060;-81
2022/07/20 08:41:15;;;;;;;3.05;1.85;;;;;;;;;;5032937;28;20576;-80
2022/07/20 08:43:42;;;;;;;7.03;1.60;;;;;;;;;;5044565;28;20041;-82
2022/07/20 08:46:09;;;;;;;6.45;1.65;;;;;;;;;;5049708;28;20072;-82
2022/07/20 08:48:37;;;;;;;2.25;1.50;;;;;;;;;;5048238;28;20469;-82
2022/07/20 08:51:04;;;;;;;4.68;1.80;;;;;;;;;;5048297;28;20041;-82
2022/07/20 08:53:32;;;;;;;3.42;1.52;;;;;;;;;;5048985;28;20049;-82
2022/07/20 08:56:05;;;;;;;1.75;1.10;;;;;;;;;;5045764;28;20095;-81
2022/07/20 08:58:32;;;;;;;3.30;1.33;;;;;;;;;;5046136;28;20053;-82
2022/07/20 09:00:59;;;;;;;3.65;1.65;;;;;;;;;;5045440;28;20429;-81
2022/07/20 09:03:27;;;;;;;7.53;1.30;;;;;;;;;;5043815;28;20049;-82
2022/07/20 09:06:06;;;;;;;4.75;1.48;;;;;;;;;;5040964;28;20045;-83
2022/07/20 09:08:34;;;;;;;3.30;1.20;;;;;;;;;;5039784;28;20049;-81
2022/07/20 09:11:03;;;;;;;2.97;1.65;;;;;;;;;;5042378;28;20050;-81
2022/07/20 09:13:32;;;;;;;9.98;2.10;;;;;;;;;;5039228;28;20441;-83
2022/07/20 09:15:59;;;;;;;6.15;1.33;;;;;;;;;;5040917;28;20053;-82
2022/07/20 09:18:31;;;;;;;6.28;1.48;;;;;;;;;;5038816;28;20087;-82
2022/07/20 09:20:58;;;;;;;2.85;1.30;;;;;;;;;;5041396;28;20491;-83
2022/07/20 09:23:25;;;;;;;6.05;1.52;;;;;;;;;;5041032;28;20079;-83
2022/07/20 09:25:54;;;;;;;2.72;1.20;;;;;;;;;;5039781;28;20045;-83
2022/07/20 09:28:21;;;;;;;2.97;1.33;;;;;;;;;;5039730;28;20487;-82
2022/07/20 09:30:53;;;;;;;12.13;2.30;;;;;;;;;;5040757;28;20426;-82
2022/07/20 09:33:25;;;;;;;4.07;1.40;;;;;;;;;;5038984;28;20045;-82
2022/07/20 09:35:52;;;;;;;6.25;1.42;;;;;;;;;;5039414;28;20049;-81
2022/07/20 09:38:19;;;;;;;4.90;1.50;;;;;;;;;;5040610;28;20080;-82
2022/07/20 09:40:47;;;;;;;4.15;1.73;;;;;;;;;;5039715;28;20057;-82
2022/07/20 09:43:34;;;;;;;5.57;1.70;;;;;;;;;;5040038;28;20556;-83
2022/07/20 09:46:13;;;;;;;4.75;1.15;;;;;;;;;;5042142;28;20076;-82
2022/07/20 09:48:45;;;;;;;5.28;1.40;;;;;;;;;;5040001;28;20056;-81
2022/07/20 09:51:19;;;;;;;2.75;1.50;;;;;;;;;;5040805;28;20050;-82
2022/07/20 09:53:48;;;;;;;5.10;1.67;;;;;;;;;;5044140;28;20053;-82
2022/07/20 09:56:16;;;;;;;5.50;1.50;;;;;;;;;;5042944;28;20076;-81
2022/07/20 09:58:45;;;;;;;2.25;1.10;;;;;;;;;;5044080;28;20079;-82
2022/07/20 10:01:16;;;;;;;2.78;1.52;;;;;;;;;;5042755;28;20068;-82
2022/07/20 10:03:44;;;;;;;3.20;1.20;;;;;;;;;;5037127;28;20050;-81
2022/07/20 10:06:12;;;;;;;6.45;1.20;;;;;;;;;;5032254;28;20073;-82
2022/07/20 10:08:39;;;;;;;4.90;1.45;;;;;;;;;;5032842;28;20042;-81
2022/07/20 10:11:06;;;;;;;6.40;1.50;;;;;;;;;;5033261;28;20077;-81
2022/07/20 10:13:34;;;;;;;3.65;1.38;;;;;;;;;;5035276;28;20168;-82
2022/07/20 10:16:24;;;;;;;10.23;1.73;;;;;;;;;;5036951;28;20107;-81
2022/07/20 10:18:52;;;;;;;2.50;1.50;;;;;;;;;;5027569;28;20115;-82
2022/07/20 10:21:39;;;;;;;4.30;1.25;;;;;;;;;;5046404;28;20083;-81
2022/07/20 10:24:18;;;;;;;3.30;1.35;;;;;;;;;;5046254;28;20061;-83
2022/07/20 10:26:46;;;;;;;3.58;1.38;;;;;;;;;;5048547;28;20061;-82
2022/07/20 10:29:45;;;;;;;8.30;1.83;;;;;;;;;;5047987;28;20100;-83
2022/07/20 10:32:14;;;;;;;10.50;1.58;;;;;;;;;;5007414;28;20045;-82
2022/07/20 10:34:41;;;;;;;4.30;1.10;;;;;;;;;;5048919;28;20053;-83
2022/07/20 10:37:25;;;;;;;5.97;1.67;;;;;;;;;;5047024;28;20049;-83
2022/07/20 10:39:53;;;;;;;2.85;1.25;;;;;;;;;;5048899;28;20053;-83
2022/07/20 10:42:34;;;;;;;3.00;1.30;;;;;;;;;;5049562;28;20057;-82
2022/07/20 10:45:19;;;;;;;7.07;1.92;;;;;;;;;;5046016;28;20076;-83
2022/07/20 10:47:48;;;;;;;3.63;1.20;;;;;;;;;;5050904;28;20418;-83
2022/07/20 10:50:26;;;;;;;2.15;1.20;;;;;;;;;;5049032;28;20046;-84
2022/07/20 10:52:58;;;;;;;2.85;1.48;;;;;;;;;;5051060;28;20056;-83
2022/07/20 10:55:35;;;;;;;3.53;1.35;;;;;;;;;;5051308;28;20109;-84
2022/07/20 10:58:06;;;;;;;4.18;1.55;;;;;;;;;;5049134;28;20514;-85
2022/07/20 11:00:36;;;;;;;2.50;1.40;;;;;;;;;;5048969;28;20053;-84
2022/07/20 11:03:04;;;;;;;3.33;1.38;;;;;;;;;;5049187;28;20053;-83
2022/07/20 11:05:32;;;;;;;3.60;1.50;;;;;;;;;;5049666;28;20061;-84
2022/07/20 11:08:04;;;;;;;1.83;1.30;;;;;;;;;;5044760;28;20049;-84
2022/07/20 11:10:31;;;;;;;4.43;1.42;;;;;;;;;;5047178;28;20422;-83
2022/07/20 11:13:03;;;;;;;2.85;1.33;;;;;;;;;;5041696;28;20049;-83
2022/07/20 11:15:47;;;;;;;4.63;1.50;;;;;;;;;;5036686;28;20045;-83
2022/07/20 11:18:15;;;;;;;6.03;1.95;;;;;;;;;;5037599;28;20494;-83
2022/07/20 11:20:52;;;;;;;7.53;1.67;;;;;;;;;;5035994;28;20049;-83
2022/07/20 11:23:20;;;;;;;3.50;1.48;;;;;;;;;;5036725;28;20088;-83
2022/07/20 11:25:58;;;;;;;7.25;1.70;;;;;;;;;;5037011;28;20091;-83
2022/07/20 11:28:27;;;;;;;2.72;1.42;;;;;;;;;;5035650;28;20053;-82
2022/07/20 11:30:55;;;;;;;2.33;1.40;;;;;;;;;;5037213;28;20417;-82
2022/07/20 11:33:23;;;;;;;4.00;1.20;;;;;;;;;;5036398;28;20045;-82
2022/07/20 11:35:50;;;;;;;5.05;1.60;;;;;;;;;;5037551;28;20079;-83
2022/07/20 11:38:18;;;;;;;1.70;1.27;;;;;;;;;;5033803;28;20498;-82
2022/07/20 11:41:05;;;;;;;6.53;1.45;;;;;;;;;;5034141;28;20126;-82
2022/07/20 11:43:46;;;;;;;5.47;1.50;;;;;;;;;;5019714;28;20049;-81
2022/07/20 11:46:22;;;;;;;6.72;1.80;;;;;;;;;;5032685;28;20052;-82
2022/07/20 11:48:58;;;;;;;3.78;1.60;;;;;;;;;;5035489;28;20073;-82
2022/07/20 11:51:52;;;;;;;3.63;1.27;;;;;;;;;;5032728;28;20132;-81
2022/07/20 11:54:23;;;;;;;4.72;1.70;;;;;;;;;;5032408;28;20042;-82
2022/07/20 11:56:51;;;;;;;3.38;1.40;;;;;;;;;;5033162;28;20391;-82
2022/07/20 11:59:18;;;;;;;4.85;1.60;;;;;;;;;;5032809;28;20053;-82
2022/07/20 12:01:48;;;;;;;4.28;1.48;;;;;;;;;;5034336;28;20506;-82
2022/07/20 12:04:19;;;;;;;2.95;1.50;;;;;;;;;;5033491;28;20054;-83
2022/07/20 12:06:47;;;;;;;3.50;1.50;;;;;;;;;;5032411;28;20053;-81
2022/07/20 12:09:18;;;;;;;4.45;1.52;;;;;;;;;;5033906;28;20046;-82
2022/07/20 12:11:55;;;;;;;4.35;1.33;;;;;;;;;;5032679;28;20156;-83
2022/07/20 12:14:28;;;;;;;3.25;1.27;;;;;;;;;;5034359;28;20046;-84
2022/07/20 12:17:19;;;;;;;4.85;1.65;;;;;;;;;;5048659;28;20060;-82
2022/07/20 12:19:48;;;;;;;6.00;1.55;;;;;;;;;;5044802;28;20140;-83
2022/07/20 12:22:16;;;;;;;4.32;1.88;;;;;;;;;;5046374;28;20053;-81
2022/07/20 12:25:19;;;;;;;6.88;2.20;;;;;;;;;;5045372;28;20046;-82
2022/07/20 12:27:47;;;;;;;8.70;1.83;;;;;;;;;;4963999;29;20123;-83
2022/07/20 12:30:27;;;;;;;6.07;1.60;;;;;;;;;;5012687;28;20107;-81
2022/07/20 12:33:06;;;;;;;4.00;1.45;;;;;;;;;;5044280;28;20053;-82
2022/07/20 12:35:34;;;;;;;2.40;1.45;;;;;;;;;;5043290;28;20159;-83
2022/07/20 12:38:01;;;;;;;2.20;1.58;;;;;;;;;;5041165;28;20049;-83
2022/07/20 12:40:38;;;;;;;4.72;1.70;;;;;;;;;;5042427;28;20050;-83
2022/07/20 12:43:07;;;;;;;3.47;1.40;;;;;;;;;;5040424;28;20060;-81
2022/07/20 12:45:34;;;;;;;3.22;1.40;;;;;;;;;;5039578;28;20050;-83
2022/07/20 12:48:01;;;;;;;7.05;2.20;;;;;;;;;;5038154;28;20072;-81
2022/07/20 12:50:34;;;;;;;7.70;1.85;;;;;;;;;;5039037;28;20060;-82
2022/07/20 12:53:01;;;;;;;2.83;1.70;;;;;;;;;;5037992;28;20553;-82
2022/07/20 12:55:28;;;;;;;3.80;1.92;;;;;;;;;;5037232;28;20077;-82
2022/07/20 12:57:55;;;;;;;5.82;1.60;;;;;;;;;;5037676;28;20057;-81
2022/07/20 13:00:23;;;;;;;7.13;1.80;;;;;;;;;;5035632;28;20050;-82
2022/07/20 13:02:50;;;;;;;7.07;2.15;;;;;;;;;;5034421;28;20107;-82
2022/07/20 13:05:17;;;;;;;3.15;1.55;;;;;;;;;;5033954;28;20075;-82
2022/07/20 13:07:46;;;;;;;3.00;1.30;;;;;;;;;;5034223;28;20486;-83
2022/07/20 13:10:14;;;;;;;2.00;1.40;;;;;;;;;;5035209;28;20054;-82
2022/07/20 13:12:42;;;;;;;3.10;1.95;;;;;;;;;;5034321;28;20176;-82
2022/07/20 13:15:09;;;;;;;6.85;2.25;;;;;;;;;;5035164;28;20057;-82
2022/07/20 13:17:57;;;;;;;4.07;1.58;;;;;;;;;;5033705;28;20092;-82
2022/07/20 13:20:24;;;;;;;5.00;2.08;;;;;;;;;;5032802;28;20108;-82
2022/07/20 13:22:53;;;;;;;2.50;1.80;;;;;;;;;;5032502;28;20045;-82
2022/07/20 13:25:21;;;;;;;2.33;1.67;;;;;;;;;;5048880;22;20041;-82
2022/07/20 13:27:48;;;;;;;3.70;1.77;;;;;;;;;;5055406;28;20071;-84
2022/07/20 13:30:15;;;;;;;1.85;1.73;;;;;;;;;;5060284;28;20076;-83
2022/07/20 13:32:43;;;;;;;3.95;1.90;;;;;;;;;;5059002;28;20044;-81
2022/07/20 13:35:10;;;;;;;2.95;1.85;;;;;;;;;;5056468;28;20147;-82
2022/07/20 13:37:39;;;;;;;3.13;1.88;;;;;;;;;;5055557;28;20048;-80
2022/07/20 13:40:10;;;;;;;2.28;1.80;;;;;;;;;;5073239;28;20054;-80
2022/07/20 13:42:40;;;;;;;6.07;2.17;;;;;;;;;;5055496;28;20139;-81
2022/07/20 13:45:08;;;;;;;7.03;1.60;;;;;;;;;;5055615;28;20049;-83
2022/07/20 13:47:38;;;;;;;3.50;1.77;;;;;;;;;;5059019;28;20072;-81
2022/07/20 13:50:06;;;;;;;4.70;2.00;;;;;;;;;;5059741;28;20060;-82
2022/07/20 13:52:33;;;;;;;3.33;1.83;;;;;;;;;;5059328;28;20049;-82
2022/07/20 13:55:01;;;;;;;6.47;2.00;;;;;;;;;;5059456;28;20074;-81
2022/07/20 13:57:29;;;;;;;4.97;2.22;;;;;;;;;;5059253;28;20399;-82
2022/07/20 13:59:56;;;;;;;4.70;2.03;;;;;;;;;;5060096;28;20110;-80
2022/07/20 14:02:23;;;;;;;5.25;1.70;;;;;;;;;;5060261;28;20139;-81
2022/07/20 14:04:51;;;;;;;3.58;1.90;;;;;;;;;;5077537;28;20087;-82
2022/07/20 14:07:18;;;;;;;5.72;1.85;;;;;;;;;;5059666;28;20098;-83
2022/07/20 14:09:45;;;;;;;4.00;1.70;;;;;;;;;;5060184;28;20467;-82
2022/07/20 14:12:13;;;;;;;5.63;1.80;;;;;;;;;;5061040;28;20044;-80
2022/07/20 14:14:41;;;;;;;4.55;2.15;;;;;;;;;;5060718;28;20503;-82
2022/07/20 14:17:11;;;;;;;5.25;1.92;;;;;;;;;;5058753;28;20049;-81
2022/07/20 14:19:39;;;;;;;7.00;2.03;;;;;;;;;;5058507;28;20101;-81
2022/07/20 14:22:07;;;;;;;5.43;1.88;;;;;;;;;;5058681;28;20082;-81
2022/07/20 14:24:35;;;;;;;5.65;1.88;;;;;;;;;;5075986;28;20048;-82
2022/07/20 14:27:02;;;;;;;4.90;2.50;;;;;;;;;;5058154;28;20496;-82
2022/07/20 14:29:30;;;;;;;4.18;2.00;;;;;;;;;;5058296;28;20052;-80
2022/07/20 14:31:57;;;;;;;3.35;1.75;;;;;;;;;;5058120;28;20072;-83
2022/07/20 14:34:24;;;;;;;3.33;1.90;;;;;;;;;;5058735;28;20048;-83
2022/07/20 14:36:52;;;;;;;3.08;2.00;;;;;;;;;;5058318;28;20052;-82
2022/07/20 14:39:19;;;;;;;4.75;1.65;;;;;;;;;;5058945;28;20048;-81
2022/07/20 14:41:47;;;;;;;8.18;1.90;;;;;;;;;;5059384;28;20448;-81
2022/07/20 14:44:14;;;;;;;2.50;2.08;;;;;;;;;;5058847;28;20105;-82
2022/07/20 14:46:41;;;;;;;4.43;2.03;;;;;;;;;;5058785;28;20079;-84
2022/07/20 14:49:09;;;;;;;7.85;2.15;;;;;;;;;;5059917;28;20046;-83
2022/07/20 14:51:36;;;;;;;2.33;1.90;;;;;;;;;;5058311;28;20102;-82
2022/07/20 14:54:03;;;;;;;3.22;1.88;;;;;;;;;;5058871;28;20049;-82
2022/07/20 14:56:32;;;;;;;3.65;2.15;;;;;;;;;;5058288;28;20136;-82
2022/07/20 14:58:59;;;;;;;7.10;2.40;;;;;;;;;;5057740;28;20045;-80